createdAt,value
2023-05-04T00:00:21.220Z,14.03
2023-05-04T00:01:22.785Z,14.00
2023-05-04T00:02:24.370Z,13.90
2023-05-04T00:03:26.154Z,13.76
2023-05-04T00:04:28.391Z,13.80
2023-05-04T00:05:30.010Z,13.82
2023-05-04T00:06:32.412Z,13.82
2023-05-04T00:07:34.384Z,13.79
2023-05-04T00:08:35.923Z,13.82
2023-05-04T00:09:37.632Z,13.75
2023-05-04T00:10:39.163Z,13.77
2023-05-04T00:11:41.620Z,13.74
2023-05-04T00:12:43.195Z,13.73
2023-05-04T00:13:44.770Z,13.72
2023-05-04T00:14:46.293Z,13.72
2023-05-04T00:15:47.857Z,13.61
2023-05-04T00:16:49.884Z,13.61
2023-05-04T00:17:51.697Z,13.68
2023-05-04T00:18:53.294Z,13.67
2023-05-04T00:19:55.000Z,13.66
2023-05-04T00:20:56.873Z,13.52
2023-05-04T00:21:58.500Z,13.53
2023-05-04T00:23:00.085Z,13.60
2023-05-04T00:24:02.422Z,13.58
2023-05-04T00:25:04.519Z,13.51
2023-05-04T00:26:06.639Z,13.40
2023-05-04T00:27:08.796Z,13.54
2023-05-04T00:28:10.549Z,13.52
2023-05-04T00:29:12.199Z,13.49
2023-05-04T00:30:14.169Z,13.47
2023-05-04T00:31:19.292Z,13.46
2023-05-04T00:32:21.273Z,13.46
2023-05-04T00:33:22.948Z,13.44
2023-05-04T00:34:24.819Z,13.38
2023-05-04T00:35:26.884Z,13.27
2023-05-04T00:36:29.437Z,13.09
2023-05-04T00:37:31.216Z,12.94
2023-05-04T00:38:47.121Z,13.31
2023-05-04T00:39:48.838Z,13.39
2023-05-04T00:40:50.973Z,13.32
2023-05-04T00:41:52.879Z,13.17
2023-05-04T00:42:54.476Z,13.20
2023-05-04T00:43:56.061Z,13.28
2023-05-04T00:44:57.599Z,13.16
2023-05-04T00:45:59.102Z,13.24
2023-05-04T00:47:00.746Z,13.19
2023-05-04T00:48:02.389Z,13.18
2023-05-04T00:49:04.192Z,13.15
2023-05-04T00:50:07.002Z,13.20
2023-05-04T00:51:08.707Z,13.56
2023-05-04T00:52:10.247Z,13.32
2023-05-04T00:53:11.821Z,13.21
2023-05-04T00:54:15.069Z,13.09
2023-05-04T00:55:16.670Z,13.13
2023-05-04T00:56:18.323Z,13.04
2023-05-04T00:57:19.842Z,13.07
2023-05-04T00:58:21.772Z,13.06
2023-05-04T00:59:23.335Z,13.02
2023-05-04T01:00:24.929Z,12.97
2023-05-04T01:01:26.844Z,12.99
2023-05-04T01:02:28.428Z,12.70
2023-05-04T01:03:30.032Z,12.98
2023-05-04T01:04:31.638Z,12.97
2023-05-04T01:05:36.426Z,12.92
2023-05-04T01:06:47.649Z,12.84
2023-05-04T01:07:58.988Z,12.88
2023-05-04T01:09:19.502Z,12.90
2023-05-04T01:10:26.408Z,12.67
2023-05-04T01:11:41.229Z,12.60
2023-05-04T01:12:45.079Z,12.48
2023-05-04T01:13:46.946Z,12.39
2023-05-04T01:14:48.560Z,12.44
2023-05-04T01:15:50.041Z,12.30
2023-05-04T01:16:56.199Z,12.04
2023-05-04T01:17:57.997Z,12.10
2023-05-04T01:18:59.509Z,12.11
2023-05-04T01:20:01.044Z,12.00
2023-05-04T01:21:02.658Z,11.94
2023-05-04T01:22:04.185Z,11.96
2023-05-04T01:23:05.783Z,11.88
2023-05-04T01:24:07.352Z,11.87
2023-05-04T01:25:09.115Z,11.97
2023-05-04T01:26:24.526Z,12.07
2023-05-04T01:27:36.380Z,12.16
2023-05-04T01:29:01.000Z,12.29
2023-05-04T01:30:06.015Z,12.26
2023-05-04T01:31:09.140Z,12.25
2023-05-04T01:32:10.762Z,12.58
2023-05-04T01:33:12.433Z,12.44
2023-05-04T01:34:14.037Z,12.34
2023-05-04T01:35:16.259Z,12.27
2023-05-04T01:36:19.535Z,12.23
2023-05-04T01:37:21.231Z,12.27
2023-05-04T01:38:22.729Z,12.26
2023-05-04T01:39:24.241Z,12.25
2023-05-04T01:40:25.764Z,12.20
2023-05-04T01:41:27.391Z,12.24
2023-05-04T01:42:28.888Z,12.20
2023-05-04T01:43:30.997Z,12.25
2023-05-04T01:44:32.726Z,12.24
2023-05-04T01:45:34.383Z,12.25
2023-05-04T01:46:36.104Z,12.24
2023-05-04T01:47:37.771Z,12.20
2023-05-04T01:48:39.314Z,12.21
2023-05-04T01:49:40.841Z,12.20
2023-05-04T01:50:42.363Z,12.20
2023-05-04T01:51:45.211Z,12.20
2023-05-04T01:52:46.719Z,12.21
2023-05-04T01:53:48.270Z,12.21
2023-05-04T01:54:49.798Z,12.16
2023-05-04T01:55:51.384Z,12.20
2023-05-04T01:56:52.926Z,12.18
2023-05-04T01:57:54.447Z,12.22
2023-05-04T01:58:55.961Z,12.20
2023-05-04T01:59:57.493Z,12.11
2023-05-04T02:00:59.371Z,11.95
2023-05-04T02:02:01.026Z,11.90
2023-05-04T02:03:02.920Z,11.90
2023-05-04T02:04:04.971Z,11.78
2023-05-04T02:05:07.254Z,11.71
2023-05-04T02:06:08.875Z,11.80
2023-05-04T02:07:10.423Z,11.77
2023-05-04T02:08:11.939Z,11.71
2023-05-04T02:09:13.623Z,11.77
2023-05-04T02:10:15.135Z,11.79
2023-05-04T02:11:16.621Z,11.79
2023-05-04T02:12:18.118Z,11.81
2023-05-04T02:13:19.740Z,11.81
2023-05-04T02:14:21.284Z,11.81
2023-05-04T02:15:22.813Z,11.71
2023-05-04T02:16:24.370Z,11.73
2023-05-04T02:17:26.039Z,11.58
2023-05-04T02:18:27.577Z,11.44
2023-05-04T02:19:29.090Z,11.35
2023-05-04T02:20:30.672Z,11.18
2023-05-04T02:21:32.181Z,11.17
2023-05-04T02:22:33.695Z,11.09
2023-05-04T02:23:35.197Z,11.17
2023-05-04T02:24:36.860Z,11.21
2023-05-04T02:25:43.852Z,11.21
2023-05-04T02:26:45.704Z,11.38
2023-05-04T02:27:47.248Z,11.42
2023-05-04T02:28:48.821Z,11.48
2023-05-04T02:29:50.353Z,11.48
2023-05-04T02:30:51.960Z,11.49
2023-05-04T02:31:53.473Z,11.50
2023-05-04T02:32:55.090Z,11.53
2023-05-04T02:33:56.647Z,11.51
2023-05-04T02:34:58.316Z,11.45
2023-05-04T02:35:59.875Z,11.40
2023-05-04T02:37:01.374Z,11.40
2023-05-04T02:38:02.997Z,11.28
2023-05-04T02:39:04.505Z,11.14
2023-05-04T02:40:06.928Z,11.15
2023-05-04T02:41:08.740Z,11.07
2023-05-04T02:42:10.361Z,11.06
2023-05-04T02:43:11.917Z,11.07
2023-05-04T02:44:13.430Z,11.12
2023-05-04T02:45:15.017Z,11.19
2023-05-04T02:46:17.063Z,11.13
2023-05-04T02:47:18.657Z,11.16
2023-05-04T02:48:20.209Z,11.18
2023-05-04T02:49:21.704Z,11.21
2023-05-04T02:50:23.238Z,11.23
2023-05-04T02:51:24.819Z,11.25
2023-05-04T02:52:26.321Z,11.30
2023-05-04T02:53:27.901Z,11.30
2023-05-04T02:54:29.432Z,11.31
2023-05-04T02:55:30.980Z,11.31
2023-05-04T02:56:32.505Z,11.31
2023-05-04T02:57:33.996Z,11.23
2023-05-04T02:58:35.515Z,11.29
2023-05-04T02:59:37.272Z,11.30
2023-05-04T03:00:38.796Z,11.31
2023-05-04T03:01:40.465Z,11.32
2023-05-04T03:02:42.295Z,11.33
2023-05-04T03:03:44.029Z,11.34
2023-05-04T03:04:45.812Z,11.32
2023-05-04T03:05:47.512Z,11.31
2023-05-04T03:06:49.022Z,11.28
2023-05-04T03:07:50.868Z,11.31
2023-05-04T03:08:52.377Z,11.33
2023-05-04T03:09:53.891Z,11.27
2023-05-04T03:10:55.728Z,11.23
2023-05-04T03:11:57.234Z,11.11
2023-05-04T03:13:03.800Z,11.01
2023-05-04T03:14:06.635Z,10.86
2023-05-04T03:15:08.613Z,10.83
2023-05-04T03:16:11.233Z,10.72
2023-05-04T03:17:12.761Z,10.70
2023-05-04T03:18:14.301Z,10.76
2023-05-04T03:19:18.957Z,10.80
2023-05-04T03:20:23.100Z,10.79
2023-05-04T03:21:24.933Z,10.81
2023-05-04T03:22:26.403Z,10.86
2023-05-04T03:23:27.889Z,10.89
2023-05-04T03:24:29.401Z,10.85
2023-05-04T03:25:30.901Z,10.75
2023-05-04T03:26:32.416Z,10.61
2023-05-04T03:27:33.934Z,10.50
2023-05-04T03:28:35.473Z,10.41
2023-05-04T03:29:37.045Z,10.33
2023-05-04T03:30:38.607Z,10.27
2023-05-04T03:31:40.609Z,10.24
2023-05-04T03:32:42.201Z,10.32
2023-05-04T03:33:43.751Z,10.30
2023-05-04T03:34:45.856Z,10.22
2023-05-04T03:35:47.548Z,10.08
2023-05-04T03:36:49.632Z,10.08
2023-05-04T03:37:51.135Z,10.23
2023-05-04T03:38:52.638Z,10.29
2023-05-04T03:39:54.147Z,10.30
2023-05-04T03:40:56.453Z,10.33
2023-05-04T03:41:58.313Z,10.35
2023-05-04T03:42:59.825Z,10.39
2023-05-04T03:44:01.361Z,10.38
2023-05-04T03:45:04.033Z,10.31
2023-05-04T03:46:05.773Z,10.50
2023-05-04T03:47:08.166Z,10.42
2023-05-04T03:48:09.743Z,10.36
2023-05-04T03:49:11.287Z,10.23
2023-05-04T03:50:13.416Z,10.27
2023-05-04T03:51:15.276Z,10.16
2023-05-04T03:52:16.858Z,10.23
2023-05-04T03:53:18.367Z,10.25
2023-05-04T03:54:19.879Z,10.32
2023-05-04T03:55:21.407Z,10.34
2023-05-04T03:56:23.271Z,10.34
2023-05-04T03:57:24.793Z,10.37
2023-05-04T03:58:26.377Z,10.38
2023-05-04T03:59:28.034Z,10.25
2023-05-04T04:00:29.792Z,10.29
2023-05-04T04:01:31.613Z,10.24
2023-05-04T04:02:33.194Z,10.27
2023-05-04T04:03:36.660Z,10.29
2023-05-04T04:04:38.304Z,10.37
2023-05-04T04:05:39.902Z,10.39
2023-05-04T04:06:43.423Z,10.41
2023-05-04T04:07:45.259Z,10.47
2023-05-04T04:08:46.777Z,10.44
2023-05-04T04:09:48.332Z,10.36
2023-05-04T04:10:49.937Z,10.37
2023-05-04T04:11:51.557Z,10.33
2023-05-04T04:12:53.121Z,10.33
2023-05-04T04:13:54.685Z,10.37
2023-05-04T04:14:56.300Z,10.38
2023-05-04T04:15:57.965Z,10.44
2023-05-04T04:16:59.533Z,10.50
2023-05-04T04:18:01.164Z,10.51
2023-05-04T04:19:02.782Z,10.38
2023-05-04T04:20:04.815Z,10.30
2023-05-04T04:21:06.918Z,10.37
2023-05-04T04:22:08.478Z,10.47
2023-05-04T04:23:10.004Z,10.54
2023-05-04T04:24:11.510Z,10.52
2023-05-04T04:25:13.623Z,10.51
2023-05-04T04:26:15.956Z,10.54
2023-05-04T04:27:17.714Z,10.59
2023-05-04T04:28:19.259Z,10.49
2023-05-04T04:29:20.928Z,10.44
2023-05-04T04:30:22.937Z,10.49
2023-05-04T04:31:24.542Z,10.50
2023-05-04T04:32:26.130Z,10.46
2023-05-04T04:33:27.701Z,10.35
2023-05-04T04:34:29.244Z,10.39
2023-05-04T04:35:32.715Z,10.36
2023-05-04T04:36:35.005Z,10.42
2023-05-04T04:37:36.725Z,10.49
2023-05-04T04:38:39.714Z,10.50
2023-05-04T04:39:41.169Z,10.61
2023-05-04T04:40:42.862Z,10.62
2023-05-04T04:41:44.390Z,10.54
2023-05-04T04:42:46.249Z,10.50
2023-05-04T04:43:48.015Z,10.54
2023-05-04T04:44:49.880Z,10.64
2023-05-04T04:45:54.134Z,10.70
2023-05-04T04:46:55.919Z,10.78
2023-05-04T04:47:57.644Z,10.85
2023-05-04T04:48:59.233Z,10.90
2023-05-04T04:50:01.048Z,10.94
2023-05-04T04:51:02.628Z,10.94
2023-05-04T04:52:04.709Z,10.97
2023-05-04T04:53:06.266Z,11.00
2023-05-04T04:54:07.796Z,11.04
2023-05-04T04:55:09.529Z,11.09
2023-05-04T04:56:11.391Z,11.16
2023-05-04T04:57:12.887Z,11.20
2023-05-04T04:58:14.432Z,11.21
2023-05-04T04:59:15.951Z,11.26
2023-05-04T05:00:17.866Z,11.30
2023-05-04T05:01:19.501Z,11.34
2023-05-04T05:02:21.029Z,11.38
2023-05-04T05:03:22.622Z,11.38
2023-05-04T05:04:25.218Z,11.43
2023-05-04T05:05:27.038Z,11.48
2023-05-04T05:06:28.566Z,11.51
2023-05-04T05:07:30.151Z,11.55
2023-05-04T05:08:32.700Z,11.54
2023-05-04T05:09:34.822Z,11.49
2023-05-04T05:10:36.438Z,11.50
2023-05-04T05:11:38.172Z,11.55
2023-05-04T05:12:39.851Z,11.41
2023-05-04T05:13:41.373Z,11.46
2023-05-04T05:14:43.199Z,11.51
2023-05-04T05:15:45.035Z,11.55
2023-05-04T05:16:46.610Z,11.34
2023-05-04T05:17:48.219Z,11.44
2023-05-04T05:18:50.642Z,11.43
2023-05-04T05:19:52.543Z,11.51
2023-05-04T05:20:54.511Z,11.60
2023-05-04T05:21:57.110Z,11.70
2023-05-04T05:22:58.867Z,11.77
2023-05-04T05:24:01.747Z,11.85
2023-05-04T05:25:04.393Z,11.89
2023-05-04T05:26:06.384Z,12.01
2023-05-04T05:27:08.322Z,12.07
2023-05-04T05:28:10.319Z,12.12
2023-05-04T05:29:11.822Z,12.21
2023-05-04T05:30:13.831Z,12.27
2023-05-04T05:31:15.874Z,12.34
2023-05-04T05:32:17.516Z,12.18
2023-05-04T05:33:19.108Z,12.33
2023-05-04T05:34:20.707Z,12.38
2023-05-04T05:35:22.247Z,12.50
2023-05-04T05:36:23.768Z,12.58
2023-05-04T05:37:25.285Z,12.64
2023-05-04T05:38:26.868Z,12.72
2023-05-04T05:39:29.210Z,12.75
2023-05-04T05:40:31.604Z,12.80
2023-05-04T05:41:33.137Z,12.84
2023-05-04T05:42:34.632Z,12.87
2023-05-04T05:43:38.577Z,12.93
2023-05-04T05:44:40.176Z,13.01
2023-05-04T05:45:41.708Z,12.98
2023-05-04T05:46:43.388Z,13.07
2023-05-04T05:47:45.045Z,13.12
2023-05-04T05:48:46.600Z,13.19
2023-05-04T05:49:48.117Z,13.24
2023-05-04T05:50:49.684Z,13.30
2023-05-04T05:51:51.206Z,13.37
2023-05-04T05:52:52.711Z,13.41
2023-05-04T05:53:54.218Z,13.42
2023-05-04T05:54:55.784Z,13.46
2023-05-04T05:55:57.352Z,13.45
2023-05-04T05:56:58.943Z,13.49
2023-05-04T05:58:00.503Z,13.56
2023-05-04T05:59:02.247Z,13.57
2023-05-04T06:00:05.374Z,13.66
2023-05-04T06:01:07.074Z,13.74
2023-05-04T06:02:08.651Z,13.80
2023-05-04T06:03:10.390Z,13.86
2023-05-04T06:04:12.059Z,13.91
2023-05-04T06:05:14.349Z,13.93
2023-05-04T06:06:16.619Z,14.00
2023-05-04T06:07:19.455Z,13.90
2023-05-04T06:08:21.024Z,14.07
2023-05-04T06:09:22.548Z,14.13
2023-05-04T06:10:24.425Z,14.18
2023-05-04T06:11:27.003Z,14.22
2023-05-04T06:12:28.679Z,14.26
2023-05-04T06:13:30.277Z,14.30
2023-05-04T06:14:31.856Z,14.37
2023-05-04T06:15:33.496Z,14.43
2023-05-04T06:16:35.675Z,14.44
2023-05-04T06:17:37.427Z,14.41
2023-05-04T06:18:38.942Z,14.47
2023-05-04T06:19:40.588Z,14.47
2023-05-04T06:20:42.118Z,14.46
2023-05-04T06:21:43.690Z,14.54
2023-05-04T06:22:45.188Z,14.59
2023-05-04T06:23:47.700Z,14.62
2023-05-04T06:24:49.246Z,14.64
2023-05-04T06:25:50.843Z,14.69
2023-05-04T06:26:52.366Z,14.75
2023-05-04T06:27:53.897Z,14.81
2023-05-04T06:28:55.453Z,14.83
2023-05-04T06:29:57.013Z,14.96
2023-05-04T06:30:58.789Z,15.06
2023-05-04T06:32:00.871Z,15.13
2023-05-04T06:33:04.282Z,15.12
2023-05-04T06:34:06.228Z,14.92
2023-05-04T06:35:09.415Z,14.63
2023-05-04T06:36:12.102Z,14.81
2023-05-04T06:37:14.852Z,15.05
2023-05-04T06:38:17.651Z,15.19
2023-05-04T06:39:19.226Z,15.32
2023-05-04T06:40:20.796Z,15.47
2023-05-04T06:41:22.436Z,15.54
2023-05-04T06:42:24.072Z,15.49
2023-05-04T06:43:25.592Z,15.60
2023-05-04T06:44:27.671Z,15.70
2023-05-04T06:45:29.444Z,15.77
2023-05-04T06:46:31.560Z,16.01
2023-05-04T06:47:36.768Z,15.87
2023-05-04T06:48:38.637Z,15.83
2023-05-04T06:49:40.587Z,15.93
2023-05-04T06:50:42.387Z,15.87
2023-05-04T06:51:44.266Z,15.70
2023-05-04T06:52:46.473Z,15.92
2023-05-04T06:53:48.142Z,16.06
2023-05-04T06:54:50.129Z,16.05
2023-05-04T06:55:51.694Z,15.83
2023-05-04T06:56:53.468Z,16.05
2023-05-04T06:57:55.010Z,15.93
2023-05-04T06:58:56.750Z,16.17
2023-05-04T06:59:58.361Z,16.12
2023-05-04T07:00:59.901Z,16.33
2023-05-04T07:02:01.566Z,16.30
2023-05-04T07:03:03.123Z,16.51
2023-05-04T07:04:04.868Z,16.69
2023-05-04T07:05:06.699Z,16.87
2023-05-04T07:06:08.597Z,16.46
2023-05-04T07:07:10.131Z,16.57
2023-05-04T07:08:12.432Z,16.75
2023-05-04T07:09:16.578Z,16.83
2023-05-04T07:10:19.546Z,16.98
2023-05-04T07:11:21.180Z,17.04
2023-05-04T07:12:22.717Z,17.11
2023-05-04T07:13:24.738Z,17.25
2023-05-04T07:14:26.726Z,17.16
2023-05-04T07:15:28.371Z,17.10
2023-05-04T07:16:30.007Z,17.28
2023-05-04T07:17:32.411Z,17.31
2023-05-04T07:18:34.066Z,17.49
2023-05-04T07:19:36.402Z,17.63
2023-05-04T07:20:37.969Z,17.63
2023-05-04T07:21:39.543Z,17.57
2023-05-04T07:22:41.274Z,17.11
2023-05-04T07:23:42.984Z,17.24
2023-05-04T07:24:44.539Z,16.81
2023-05-04T07:25:46.197Z,16.41
2023-05-04T07:26:47.794Z,15.91
2023-05-04T07:27:49.349Z,16.06
2023-05-04T07:28:50.886Z,16.34
2023-05-04T07:29:52.771Z,16.28
2023-05-04T07:30:54.518Z,16.65
2023-05-04T07:31:56.271Z,16.56
2023-05-04T07:32:58.002Z,17.23
2023-05-04T07:33:59.532Z,17.26
2023-05-04T07:35:01.068Z,17.33
2023-05-04T07:36:02.598Z,16.47
2023-05-04T07:37:05.120Z,16.79
2023-05-04T07:38:06.704Z,16.95
2023-05-04T07:39:08.242Z,17.15
2023-05-04T07:40:10.461Z,17.20
2023-05-04T07:41:12.052Z,17.06
2023-05-04T07:42:13.681Z,17.08
2023-05-04T07:43:15.253Z,17.32
2023-05-04T07:44:17.139Z,17.62
2023-05-04T07:45:18.758Z,17.64
2023-05-04T07:46:20.468Z,17.45
2023-05-04T07:47:22.777Z,17.69
2023-05-04T07:48:26.576Z,17.51
2023-05-04T07:49:28.600Z,17.53
2023-05-04T07:50:30.238Z,17.78
2023-05-04T07:51:31.840Z,17.88
2023-05-04T07:52:33.391Z,18.11
2023-05-04T07:53:35.031Z,18.32
2023-05-04T07:54:36.870Z,18.63
2023-05-04T07:55:38.642Z,18.89
2023-05-04T07:56:40.172Z,19.10
2023-05-04T07:57:41.695Z,18.91
2023-05-04T07:58:43.221Z,19.07
2023-05-04T07:59:44.740Z,19.28
2023-05-04T08:00:46.387Z,18.97
2023-05-04T08:01:47.998Z,19.20
2023-05-04T08:02:49.735Z,19.34
2023-05-04T08:03:51.721Z,18.81
2023-05-04T08:04:53.324Z,18.51
2023-05-04T08:05:54.867Z,18.85
2023-05-04T08:06:56.441Z,19.26
2023-05-04T08:07:58.022Z,19.01
2023-05-04T08:08:59.886Z,19.41
2023-05-04T08:10:01.448Z,19.17
2023-05-04T08:11:12.286Z,18.54
2023-05-04T08:12:20.551Z,19.12
2023-05-04T08:13:22.207Z,19.40
2023-05-04T08:14:23.791Z,19.49
2023-05-04T08:15:25.404Z,19.32
2023-05-04T08:16:28.382Z,19.55
2023-05-04T08:17:30.046Z,19.70
2023-05-04T08:18:31.972Z,19.93
2023-05-04T08:19:33.866Z,19.77
2023-05-04T08:20:35.498Z,19.81
2023-05-04T08:21:37.096Z,20.13
2023-05-04T08:22:38.804Z,20.34
2023-05-04T08:23:40.694Z,20.31
2023-05-04T08:24:42.256Z,19.61
2023-05-04T08:25:43.793Z,19.62
2023-05-04T08:26:55.689Z,19.92
2023-05-04T08:28:01.526Z,20.39
2023-05-04T08:29:07.653Z,20.58
2023-05-04T08:30:10.156Z,20.81
2023-05-04T08:31:12.511Z,21.02
2023-05-04T08:32:14.171Z,21.14
2023-05-04T08:33:15.726Z,21.29
2023-05-04T08:34:17.607Z,21.39
2023-05-04T08:35:19.173Z,21.41
2023-05-04T08:36:20.835Z,21.28
2023-05-04T08:37:22.435Z,20.78
2023-05-04T08:38:24.110Z,20.95
2023-05-04T08:39:25.800Z,21.15
2023-05-04T08:40:27.469Z,21.32
2023-05-04T08:41:29.107Z,21.45
2023-05-04T08:42:31.806Z,21.52
2023-05-04T08:43:37.124Z,21.03
2023-05-04T08:44:38.731Z,20.89
2023-05-04T08:45:40.409Z,20.80
2023-05-04T08:46:42.298Z,21.14
2023-05-04T08:47:45.123Z,21.33
2023-05-04T08:48:47.034Z,21.70
2023-05-04T08:49:48.582Z,21.68
2023-05-04T08:50:50.181Z,21.52
2023-05-04T08:51:51.815Z,21.47
2023-05-04T08:52:53.528Z,21.26
2023-05-04T08:53:55.145Z,20.95
2023-05-04T08:54:57.009Z,20.25
2023-05-04T08:55:59.320Z,19.64
2023-05-04T08:57:02.271Z,20.00
2023-05-04T08:58:10.361Z,20.41
2023-05-04T08:59:22.953Z,20.53
2023-05-04T09:00:24.690Z,20.80
2023-05-04T09:01:26.490Z,20.99
2023-05-04T09:02:28.156Z,21.07
2023-05-04T09:03:30.348Z,21.14
2023-05-04T09:04:31.977Z,21.13
2023-05-04T09:05:33.569Z,21.21
2023-05-04T09:06:35.311Z,21.16
2023-05-04T09:07:36.874Z,20.96
2023-05-04T09:08:38.769Z,20.84
2023-05-04T09:09:40.335Z,20.61
2023-05-04T09:10:41.869Z,20.69
2023-05-04T09:11:43.731Z,20.85
2023-05-04T09:12:45.284Z,20.92
2023-05-04T09:13:47.734Z,20.92
2023-05-04T09:14:49.274Z,20.04
2023-05-04T09:15:57.423Z,20.02
2023-05-04T09:16:58.985Z,20.33
2023-05-04T09:18:05.358Z,20.36
2023-05-04T09:19:20.031Z,19.86
2023-05-04T09:20:21.715Z,19.86
2023-05-04T09:21:30.334Z,20.23
2023-05-04T09:22:31.874Z,20.46
2023-05-04T09:23:34.510Z,20.52
2023-05-04T09:24:36.226Z,19.93
2023-05-04T09:25:50.498Z,20.50
2023-05-04T09:26:52.231Z,20.71
2023-05-04T09:27:56.839Z,20.76
2023-05-04T09:29:10.514Z,19.74
2023-05-04T09:30:12.610Z,20.20
2023-05-04T09:31:15.112Z,20.33
2023-05-04T09:32:16.706Z,20.24
2023-05-04T09:33:25.645Z,20.00
2023-05-04T09:34:27.028Z,20.53
2023-05-04T09:35:33.768Z,20.27
2023-05-04T09:36:35.792Z,20.43
2023-05-04T09:37:46.887Z,20.58
2023-05-04T09:38:49.048Z,20.60
2023-05-04T09:39:53.995Z,20.57
2023-05-04T09:40:59.282Z,20.44
2023-05-04T09:42:00.856Z,20.31
2023-05-04T09:43:03.098Z,20.28
2023-05-04T09:44:05.089Z,19.82
2023-05-04T09:45:08.068Z,20.25
2023-05-04T09:46:17.457Z,20.59
2023-05-04T09:47:19.088Z,20.78
2023-05-04T09:48:31.275Z,20.80
2023-05-04T09:49:37.458Z,20.51
2023-05-04T09:50:40.196Z,20.73
2023-05-04T09:51:41.980Z,20.85
2023-05-04T09:52:44.614Z,20.59
2023-05-04T09:53:46.236Z,20.10
2023-05-04T09:54:47.715Z,20.36
2023-05-04T09:55:56.635Z,20.54
2023-05-04T09:57:15.876Z,20.64
2023-05-04T09:58:18.473Z,20.84
2023-05-04T09:59:20.267Z,20.95
2023-05-04T10:00:21.882Z,20.92
2023-05-04T10:01:24.122Z,20.92
2023-05-04T10:02:26.304Z,21.00
2023-05-04T10:03:28.230Z,20.84
2023-05-04T10:04:29.807Z,20.94
2023-05-04T10:05:31.434Z,20.61
2023-05-04T10:06:33.219Z,20.66
2023-05-04T10:07:34.848Z,20.94
2023-05-04T10:08:36.384Z,21.08
2023-05-04T10:09:37.887Z,20.51
2023-05-04T10:10:39.906Z,20.89
2023-05-04T10:11:42.397Z,21.05
2023-05-04T10:12:46.700Z,21.17
2023-05-04T10:13:48.349Z,21.12
2023-05-04T10:14:49.871Z,21.17
2023-05-04T10:16:17.730Z,21.37
2023-05-04T10:17:31.372Z,21.51
2023-05-04T10:19:04.932Z,20.98
2023-05-04T10:20:09.654Z,21.27
2023-05-04T10:21:32.614Z,21.34
2023-05-04T10:23:08.284Z,21.46
2023-05-04T10:24:44.725Z,20.90
2023-05-04T10:25:59.674Z,20.74
2023-05-04T10:27:04.797Z,21.19
2023-05-04T10:28:28.080Z,21.52
2023-05-04T10:29:30.089Z,21.56
2023-05-04T10:30:31.679Z,21.22
2023-05-04T10:31:43.024Z,21.61
2023-05-04T10:32:44.722Z,21.90
2023-05-04T10:33:46.477Z,21.91
2023-05-04T10:34:48.038Z,21.74
2023-05-04T10:35:51.408Z,21.82
2023-05-04T10:36:52.964Z,21.89
2023-05-04T10:37:55.662Z,21.93
2023-05-04T10:38:57.196Z,22.07
2023-05-04T10:39:58.717Z,22.27
2023-05-04T10:41:00.365Z,21.71
2023-05-04T10:42:03.965Z,22.11
2023-05-04T10:43:07.274Z,22.24
2023-05-04T10:44:10.067Z,22.59
2023-05-04T10:45:13.131Z,22.77
2023-05-04T10:46:18.854Z,22.67
2023-05-04T10:47:32.960Z,22.10
2023-05-04T10:48:37.654Z,22.43
2023-05-04T10:49:39.238Z,22.74
2023-05-04T10:50:49.901Z,23.08
2023-05-04T10:52:04.640Z,23.12
2023-05-04T10:53:06.272Z,23.10
2023-05-04T10:54:18.062Z,23.05
2023-05-04T10:55:20.224Z,23.12
2023-05-04T10:56:28.206Z,23.15
2023-05-04T10:57:30.589Z,23.33
2023-05-04T10:58:32.212Z,23.29
2023-05-04T10:59:36.036Z,22.99
2023-05-04T11:00:39.015Z,22.68
2023-05-04T11:01:46.564Z,22.75
2023-05-04T11:02:48.874Z,23.01
2023-05-04T11:03:50.813Z,23.19
2023-05-04T11:05:08.279Z,23.31
2023-05-04T11:06:23.426Z,23.23
2023-05-04T11:07:36.703Z,23.20
2023-05-04T11:08:38.253Z,23.32
2023-05-04T11:09:41.792Z,23.26
2023-05-04T11:10:43.360Z,23.10
2023-05-04T11:11:44.880Z,23.19
2023-05-04T11:12:46.467Z,23.29
2023-05-04T11:13:48.129Z,23.06
2023-05-04T11:14:49.751Z,22.47
2023-05-04T11:15:54.240Z,22.39
2023-05-04T11:18:25.508Z,22.05
2023-05-04T11:19:27.077Z,22.29
2023-05-04T11:20:28.620Z,22.46
2023-05-04T11:21:30.159Z,22.53
2023-05-04T11:22:32.772Z,22.55
2023-05-04T11:23:34.379Z,22.74
2023-05-04T11:24:42.459Z,22.82
2023-05-04T11:25:44.057Z,22.62
2023-05-04T11:26:47.990Z,22.61
2023-05-04T11:27:50.547Z,22.76
2023-05-04T11:28:52.128Z,22.79
2023-05-04T11:29:57.361Z,22.84
2023-05-04T11:30:58.967Z,22.95
2023-05-04T11:32:01.831Z,22.93
2023-05-04T11:33:05.723Z,23.10
2023-05-04T11:34:07.390Z,23.11
2023-05-04T11:35:10.176Z,23.15
2023-05-04T11:36:12.399Z,23.12
2023-05-04T11:37:14.446Z,22.99
2023-05-04T11:38:21.760Z,22.42
2023-05-04T11:39:23.385Z,22.73
2023-05-04T11:40:25.969Z,22.85
2023-05-04T11:41:30.160Z,22.94
2023-05-04T11:42:32.612Z,23.05
2023-05-04T11:43:34.118Z,22.97
2023-05-04T11:44:37.276Z,22.75
2023-05-04T11:45:40.126Z,22.64
2023-05-04T11:46:41.610Z,22.32
2023-05-04T11:47:44.062Z,22.31
2023-05-04T11:48:46.160Z,22.19
2023-05-04T11:49:47.767Z,21.84
2023-05-04T11:50:49.383Z,21.87
2023-05-04T11:51:50.944Z,22.46
2023-05-04T11:53:02.727Z,22.56
2023-05-04T11:54:07.568Z,22.84
2023-05-04T11:55:13.565Z,23.02
2023-05-04T11:56:15.119Z,23.06
2023-05-04T11:57:23.516Z,23.16
2023-05-04T11:58:25.706Z,23.31
2023-05-04T11:59:27.206Z,23.46
2023-05-04T12:00:39.750Z,23.46
2023-05-04T12:01:42.044Z,23.62
2023-05-04T12:02:43.669Z,23.76
2023-05-04T12:03:53.784Z,23.74
2023-05-04T12:04:56.465Z,23.84
2023-05-04T12:05:58.458Z,23.82
2023-05-04T12:07:01.818Z,23.95
2023-05-04T12:08:03.697Z,23.98
2023-05-04T12:09:08.758Z,24.12
2023-05-04T12:10:10.932Z,24.26
2023-05-04T12:11:26.265Z,24.26
2023-05-04T12:12:35.133Z,23.80
2023-05-04T12:13:36.840Z,23.56
2023-05-04T12:14:50.592Z,23.61
2023-05-04T12:15:52.092Z,23.95
2023-05-04T12:16:57.632Z,23.82
2023-05-04T12:18:01.829Z,23.92
2023-05-04T12:19:09.305Z,24.11
2023-05-04T12:20:11.617Z,24.27
2023-05-04T12:21:14.611Z,24.43
2023-05-04T12:22:17.307Z,24.55
2023-05-04T12:23:18.876Z,24.66
2023-05-04T12:24:24.404Z,24.77
2023-05-04T12:25:26.521Z,24.95
2023-05-04T12:26:28.335Z,25.03
2023-05-04T12:27:29.942Z,24.83
2023-05-04T12:28:31.643Z,25.09
2023-05-04T12:29:33.199Z,25.24
2023-05-04T12:30:34.747Z,25.35
2023-05-04T12:31:36.740Z,25.34
2023-05-04T12:32:38.371Z,25.42
2023-05-04T12:33:39.917Z,25.56
2023-05-04T12:34:41.438Z,25.75
2023-05-04T12:35:42.973Z,25.84
2023-05-04T12:36:44.558Z,25.86
2023-05-04T12:37:46.218Z,25.97
2023-05-04T12:38:47.792Z,25.94
2023-05-04T12:39:49.351Z,25.73
2023-05-04T12:40:50.854Z,25.92
2023-05-04T12:41:52.419Z,26.11
2023-05-04T12:42:54.055Z,26.23
2023-05-04T12:43:55.970Z,26.37
2023-05-04T12:44:57.489Z,26.15
2023-05-04T12:45:59.047Z,25.91
2023-05-04T12:47:00.598Z,26.05
2023-05-04T12:48:02.382Z,25.98
2023-05-04T12:49:03.948Z,26.09
2023-05-04T12:50:06.118Z,26.24
2023-05-04T12:51:07.680Z,26.36
2023-05-04T12:52:09.303Z,26.41
2023-05-04T12:53:10.893Z,26.50
2023-05-04T12:54:12.490Z,26.66
2023-05-04T12:55:14.200Z,26.73
2023-05-04T12:56:15.691Z,26.79
2023-05-04T12:57:17.285Z,26.40
2023-05-04T12:58:18.792Z,26.48
2023-05-04T12:59:20.435Z,26.23
2023-05-04T13:00:22.130Z,26.53
2023-05-04T13:01:23.801Z,26.60
2023-05-04T13:02:25.566Z,26.24
2023-05-04T13:03:27.360Z,26.63
2023-05-04T13:04:29.435Z,26.83
2023-05-04T13:05:31.104Z,26.54
2023-05-04T13:06:32.654Z,26.46
2023-05-04T13:07:34.726Z,26.80
2023-05-04T13:08:36.735Z,26.92
2023-05-04T13:09:38.732Z,27.04
2023-05-04T13:10:40.244Z,27.14
2023-05-04T13:11:42.107Z,27.25
2023-05-04T13:12:46.080Z,27.28
2023-05-04T13:13:47.912Z,27.04
2023-05-04T13:14:49.462Z,27.11
2023-05-04T13:15:51.264Z,27.16
2023-05-04T13:16:54.042Z,26.96
2023-05-04T13:17:55.598Z,26.78
2023-05-04T13:18:57.954Z,25.97
2023-05-04T13:19:59.890Z,26.34
2023-05-04T13:21:01.477Z,26.24
2023-05-04T13:22:03.412Z,26.10
2023-05-04T13:23:04.978Z,26.27
2023-05-04T13:24:06.864Z,26.68
2023-05-04T13:25:08.685Z,26.86
2023-05-04T13:26:10.648Z,26.95
2023-05-04T13:27:12.665Z,26.25
2023-05-04T13:28:14.698Z,26.58
2023-05-04T13:29:16.483Z,26.62
2023-05-04T13:30:18.350Z,26.50